Time;durP1;ratioP1;P1;durP2;ratioP2;P2;SDS_P1;SDS_P2;PMS_P1;PMS_P2;Temp;Humidity;BMP_temperature;BMP_pressure;BME280_temperature;BME280_humidity;BME280_pressure;Samples;Min_cycle;Max_cycle;Signal;HPM_P1;HPM_P2
2022/08/22 00:01:21;;;;;;;;;5.00;3.00;;;;;22.71;51.76;101197.84;5061739;28;45435;-64
2022/08/22 00:03:58;;;;;;;;;6.75;4.75;;;;;22.74;51.99;101202.91;5059556;28;46181;-63
2022/08/22 00:06:48;;;;;;;;;6.00;5.00;;;;;22.75;51.76;101204.56;5061989;28;45233;-64
2022/08/22 00:09:28;;;;;;;;;7.50;5.25;;;;;22.72;51.69;101204.91;5061956;28;45236;-64
2022/08/22 00:12:07;;;;;;;;;7.25;4.25;;;;;22.70;51.53;101197.00;5061818;28;45542;-64
2022/08/22 00:14:55;;;;;;;;;4.50;4.25;;;;;22.72;51.66;101188.78;5061672;28;46073;-63
2022/08/22 00:17:45;;;;;;;;;7.25;4.75;;;;;22.72;51.66;101192.31;5061257;28;45365;-64
2022/08/22 00:20:27;;;;;;;;;6.25;6.00;;;;;22.73;51.34;101183.25;5061871;28;45264;-63
2022/08/22 00:23:06;;;;;;;;;4.25;4.25;;;;;22.75;51.40;101181.28;5061684;28;45459;-64
2022/08/22 00:25:37;;;;;;;;;5.75;4.00;;;;;22.76;51.48;101179.44;5047295;28;46335;-64
2022/08/22 00:28:12;;;;;;;;;5.00;3.25;;;;;22.76;51.95;101174.91;5041290;28;45214;-64
2022/08/22 00:31:01;;;;;;;;;6.75;5.75;;;;;22.74;51.51;101174.19;5041275;28;45570;-64
2022/08/22 00:33:37;;;;;;;;;5.25;3.25;;;;;22.76;51.37;101160.63;5041443;28;45514;-63
2022/08/22 00:36:14;;;;;;;;;5.75;4.50;;;;;22.75;51.77;101165.16;5048124;28;46085;-64
2022/08/22 00:38:51;;;;;;;;;7.25;3.50;;;;;22.74;51.34;101171.50;5059872;28;45342;-64
2022/08/22 00:41:48;;;;;;;;;3.75;3.75;;;;;22.74;51.35;101165.28;5061595;28;45489;-64
2022/08/22 00:44:22;;;;;;;;;8.00;5.25;;;;;22.73;51.58;101169.81;5059661;28;45390;-63
2022/08/22 00:47:03;;;;;;;;;7.00;7.00;;;;;22.72;51.29;101170.81;5060938;28;45255;-64
2022/08/22 00:50:05;;;;;;;;;7.25;6.25;;;;;22.72;51.28;101173.50;5061119;28;45460;-64
2022/08/22 00:52:51;;;;;;;;;9.75;8.75;;;;;22.72;51.26;101183.41;5061187;28;45151;-64
2022/08/22 00:55:33;;;;;;;;;10.50;9.75;;;;;22.71;51.51;101179.06;5061267;28;45399;-63
2022/08/22 00:58:32;;;;;;;;;10.25;7.00;;;;;22.69;51.41;101173.84;5061046;28;45228;-64
2022/08/22 01:01:04;;;;;;;;;11.75;8.00;;;;;22.68;51.49;101168.63;5060694;28;45277;-64
2022/08/22 01:03:53;;;;;;;;;7.00;6.75;;;;;22.65;51.22;101171.63;5061047;28;45311;-64
2022/08/22 01:06:51;;;;;;;;;7.00;6.00;;;;;22.63;51.42;101173.63;5061147;28;45359;-64
2022/08/22 01:09:46;;;;;;;;;6.75;5.00;;;;;22.58;51.30;101183.00;5060990;28;45280;-63
2022/08/22 01:12:24;;;;;;;;;4.50;4.50;;;;;22.55;51.36;101191.38;5051788;28;45478;-63
2022/08/22 01:15:10;;;;;;;;;5.00;3.00;;;;;22.53;51.11;101195.22;5060946;28;45335;-63
2022/08/22 01:17:48;;;;;;;;;5.75;4.00;;;;;22.51;51.04;101195.41;5060734;28;45166;-64
2022/08/22 01:20:35;;;;;;;;;3.75;3.75;;;;;22.50;50.84;101187.47;5060707;28;45475;-64
2022/08/22 01:23:38;;;;;;;;;5.25;4.00;;;;;22.48;50.98;101189.47;5060779;28;45375;-63
2022/08/22 01:26:13;;;;;;;;;3.00;3.00;;;;;22.47;50.73;101187.78;5059294;28;45481;-64
2022/08/22 01:28:41;;;;;;;;;3.00;3.00;;;;;22.44;50.72;101186.28;5060700;28;45575;-64
2022/08/22 01:31:22;;;;;;;;;3.75;3.25;;;;;22.42;50.76;101182.03;5060313;28;46222;-64
2022/08/22 01:34:28;;;;;;;;;2.75;2.75;;;;;22.43;50.69;101175.66;5060534;28;45324;-63
2022/08/22 01:37:06;;;;;;;;;3.50;3.00;;;;;22.41;50.80;101169.63;5060823;28;45338;-64
2022/08/22 01:39:44;;;;;;;;;4.50;3.50;;;;;22.42;50.65;101172.16;5060693;28;45258;-64
2022/08/22 01:42:42;;;;;;;;;3.00;2.00;;;;;22.41;50.81;101167.78;5060414;28;45347;-64
2022/08/22 01:45:37;;;;;;;;;5.75;3.00;;;;;22.39;51.00;101168.94;5060177;28;45309;-64
2022/08/22 01:48:30;;;;;;;;;4.75;4.50;;;;;22.36;50.92;101151.31;5060575;28;45305;-63
2022/08/22 01:51:24;;;;;;;;;3.00;3.00;;;;;22.33;50.87;101157.00;5049822;28;45414;-64
2022/08/22 01:54:06;;;;;;;;;4.25;3.00;;;;;22.31;50.71;101150.94;5060309;28;46267;-64
2022/08/22 01:56:38;;;;;;;;;3.25;3.00;;;;;22.28;50.58;101152.09;5060362;28;45461;-63
2022/08/22 01:59:13;;;;;;;;;3.00;3.00;;;;;22.26;50.87;101154.09;5060689;28;45286;-63
2022/08/22 02:02:14;;;;;;;;;6.50;3.75;;;;;22.26;50.79;101154.09;5060012;28;45387;-64
2022/08/22 02:05:05;;;;;;;;;3.25;2.50;;;;;22.24;50.52;101164.13;5060707;28;47316;-63
2022/08/22 02:07:53;;;;;;;;;2.25;2.25;;;;;22.20;50.62;101165.47;5063806;28;45307;-64
2022/08/22 02:10:40;;;;;;;;;4.00;3.50;;;;;22.18;50.77;101169.28;5063723;28;45292;-63
2022/08/22 02:13:22;;;;;;;;;6.00;3.50;;;;;22.13;50.85;101174.28;5063903;28;45194;-63
2022/08/22 02:16:11;;;;;;;;;4.25;4.25;;;;;22.08;51.00;101169.38;5063038;28;46363;-63
2022/08/22 02:19:04;;;;;;;;;4.00;3.00;;;;;22.06;50.78;101170.50;5063774;28;45305;-64
2022/08/22 02:21:48;;;;;;;;;3.50;2.00;;;;;22.04;50.91;101170.66;5063754;28;45228;-64
2022/08/22 02:24:23;;;;;;;;;3.25;2.50;;;;;22.06;50.86;101166.00;5060029;28;45612;-64
2022/08/22 02:27:27;;;;;;;;;4.00;3.75;;;;;22.03;50.99;101167.13;5043390;28;45304;-63
2022/08/22 02:30:05;;;;;;;;;4.75;3.75;;;;;22.00;50.67;101163.91;5051948;28;45280;-64
2022/08/22 02:32:39;;;;;;;;;3.00;2.50;;;;;21.95;50.93;101161.69;5063353;28;45181;-64
2022/08/22 02:35:28;;;;;;;;;5.00;4.00;;;;;21.93;51.02;101163.69;5058916;28;45280;-64
2022/08/22 02:37:58;;;;;;;;;4.50;3.50;;;;;21.88;51.05;101155.28;5052266;28;46303;-64
2022/08/22 02:40:31;;;;;;;;;5.75;3.25;;;;;21.86;51.12;101169.81;5063182;28;45259;-64
2022/08/22 02:43:25;;;;;;;;;3.00;3.00;;;;;21.85;51.18;101171.66;5063344;28;45312;-63
2022/08/22 02:45:51;;;;;;;;;5.00;4.25;;;;;21.82;51.19;101166.63;5061567;28;45369;-64
2022/08/22 02:48:56;;;;;;;;;5.00;3.50;;;;;21.81;50.94;101162.25;5062841;28;46254;-64
2022/08/22 02:51:51;;;;;;;;;2.50;2.50;;;;;21.82;51.48;101166.63;5032757;28;45599;-64
2022/08/22 02:54:20;;;;;;;;;5.25;2.75;;;;;21.81;51.38;101154.19;5053543;28;45224;-64
2022/08/22 02:56:57;;;;;;;;;5.25;5.25;;;;;21.80;51.59;101160.53;5063058;28;45272;-64
2022/08/22 02:59:26;;;;;;;;;4.00;3.00;;;;;21.78;51.60;101173.25;5063094;28;45469;-64
2022/08/22 03:01:54;;;;;;;;;4.00;3.00;;;;;21.76;51.61;101159.19;5062517;28;45344;-64
2022/08/22 03:04:25;;;;;;;;;3.25;1.75;;;;;21.76;51.76;101163.69;5063133;28;45240;-64
2022/08/22 03:06:57;;;;;;;;;4.00;3.00;;;;;21.71;51.78;101167.66;5063012;28;45555;-63
2022/08/22 03:09:30;;;;;;;;;5.25;3.25;;;;;21.70;51.75;101160.63;5062739;28;46104;-63
2022/08/22 03:12:24;;;;;;;;;4.25;2.25;;;;;21.69;51.73;101160.78;5062948;28;45210;-63
2022/08/22 03:14:58;;;;;;;;;4.50;3.25;;;;;21.66;51.68;101167.28;5062650;28;45418;-63
2022/08/22 03:17:45;;;;;;;;;5.00;3.25;;;;;21.67;51.86;101155.56;5062789;28;45226;-63
2022/08/22 03:20:36;;;;;;;;;4.25;3.75;;;;;21.66;51.80;101163.78;5062795;28;46250;-63
2022/08/22 03:23:12;;;;;;;;;7.75;3.75;;;;;21.63;51.96;101159.53;5062635;28;45219;-63
2022/08/22 03:25:59;;;;;;;;;4.00;3.00;;;;;21.65;51.88;101170.97;5056811;28;45366;-63
2022/08/22 03:28:42;;;;;;;;;3.00;2.00;;;;;21.61;51.78;101164.22;5062598;28;45406;-63
2022/08/22 03:31:21;;;;;;;;;1.50;0.00;;;;;21.58;51.85;101164.53;5060715;28;47949;-63
2022/08/22 03:34:21;;;;;;;;;3.25;3.25;;;;;21.58;51.86;101163.69;5062218;28;45222;-63
2022/08/22 03:37:19;;;;;;;;;5.50;3.50;;;;;21.54;52.07;101157.78;5062727;28;45283;-63
2022/08/22 03:39:53;;;;;;;;;5.25;4.50;;;;;21.53;51.75;101160.63;5062624;28;45473;-64
2022/08/22 03:42:28;;;;;;;;;5.50;4.75;;;;;21.50;51.79;101159.09;5062414;28;45225;-63
2022/08/22 03:45:02;;;;;;;;;3.25;3.00;;;;;21.47;51.87;101154.00;5062323;28;45316;-63
2022/08/22 03:47:52;;;;;;;;;7.50;5.00;;;;;21.46;51.89;101150.50;5062147;28;45493;-63
2022/08/22 03:50:33;;;;;;;;;5.50;3.25;;;;;21.42;51.95;101146.44;5062173;28;45319;-63
2022/08/22 03:53:35;;;;;;;;;7.00;4.25;;;;;21.38;52.19;101158.44;5062064;28;45263;-63
2022/08/22 03:56:18;;;;;;;;;3.00;2.50;;;;;21.36;52.24;101154.25;5061943;28;45256;-63
2022/08/22 03:59:05;;;;;;;;;6.00;3.00;;;;;21.36;52.31;101144.38;5062170;28;45370;-63
2022/08/22 04:01:30;;;;;;;;;5.75;3.75;;;;;21.36;52.41;101155.09;5061731;28;45463;-63
2022/08/22 04:04:17;;;;;;;;;3.50;2.00;;;;;21.34;52.18;101143.69;5061727;28;45253;-63
2022/08/22 04:06:55;;;;;;;;;3.25;3.25;;;;;21.34;52.50;101127.59;5061517;28;45293;-64
2022/08/22 04:09:42;;;;;;;;;3.75;2.75;;;;;21.35;52.45;101133.81;5061740;28;45322;-63
2022/08/22 04:12:23;;;;;;;;;5.50;4.50;;;;;21.33;52.17;101133.09;5062251;28;46205;-63
2022/08/22 04:15:10;;;;;;;;;3.00;2.75;;;;;21.27;52.41;101139.03;5061591;28;45349;-64
2022/08/22 04:17:38;;;;;;;;;4.00;2.75;;;;;21.26;52.69;101146.22;5061494;28;45394;-63
2022/08/22 04:20:25;;;;;;;;;5.75;4.00;;;;;21.24;52.55;101133.97;5061897;28;45350;-63
2022/08/22 04:23:30;;;;;;;;;4.50;4.00;;;;;21.21;52.48;101139.63;5061632;28;46129;-64
2022/08/22 04:26:06;;;;;;;;;6.25;4.25;;;;;21.22;52.40;101142.16;5057866;28;45441;-64
2022/08/22 04:28:46;;;;;;;;;3.75;3.00;;;;;21.19;52.42;101142.47;5061513;28;45323;-64
2022/08/22 04:31:21;;;;;;;;;5.75;4.00;;;;;21.19;52.62;101142.47;5061221;28;45273;-63
2022/08/22 04:34:00;;;;;;;;;5.00;4.50;;;;;21.18;52.64;101136.25;5061324;28;45499;-63
2022/08/22 04:36:31;;;;;;;;;7.00;3.00;;;;;21.18;52.55;101143.47;5061482;28;46272;-64
2022/08/22 04:39:17;;;;;;;;;3.00;3.00;;;;;21.17;52.85;101145.31;5061510;28;45354;-64
2022/08/22 04:42:08;;;;;;;;;5.75;3.75;;;;;21.18;52.86;101141.63;5061183;28;45504;-63
2022/08/22 04:44:46;;;;;;;;;5.50;5.25;;;;;21.17;52.75;101139.06;5061296;28;45304;-64
2022/08/22 04:47:36;;;;;;;;;4.75;3.00;;;;;21.16;52.84;101142.75;5060753;28;45263;-64
2022/08/22 04:50:21;;;;;;;;;5.25;3.00;;;;;21.18;53.06;101140.78;5061083;28;45227;-64
2022/08/22 04:53:02;;;;;;;;;5.50;3.50;;;;;21.17;52.80;101141.75;5061008;28;45470;-64
2022/08/22 04:55:47;;;;;;;;;4.00;4.00;;;;;21.17;52.76;101157.81;5061162;28;45351;-64
2022/08/22 04:58:37;;;;;;;;;6.25;4.75;;;;;21.16;53.06;101166.84;5061050;28;45509;-64
2022/08/22 05:01:12;;;;;;;;;10.00;7.50;;;;;21.12;53.05;101166.31;5060715;28;45349;-63
2022/08/22 05:03:44;;;;;;;;;5.25;4.00;;;;;21.10;52.94;101157.59;5061009;28;45293;-63
2022/08/22 05:06:14;;;;;;;;;3.75;3.25;;;;;21.07;52.84;101157.88;5061058;28;45561;-63
2022/08/22 05:08:42;;;;;;;;;4.75;3.25;;;;;21.06;53.04;101158.03;5060911;28;45398;-64
2022/08/22 05:11:10;;;;;;;;;4.50;2.75;;;;;21.06;52.91;101166.06;5060776;28;45338;-64
2022/08/22 05:13:52;;;;;;;;;38.25;31.50;;;;;21.06;53.42;101180.31;5061054;28;45353;-64
2022/08/22 05:16:38;;;;;;;;;7.00;4.75;;;;;21.07;53.35;101181.16;5060582;28;45438;-64
2022/08/22 05:19:16;;;;;;;;;6.00;4.50;;;;;21.08;53.27;101177.47;5060774;28;45985;-63
2022/08/22 05:21:43;;;;;;;;;6.25;4.25;;;;;21.07;53.12;101182.00;5061057;28;45303;-64
2022/08/22 05:24:17;;;;;;;;;6.50;4.00;;;;;21.09;53.26;101171.13;5058619;28;45504;-64
2022/08/22 05:26:48;;;;;;;;;4.75;3.00;;;;;21.07;53.40;101170.44;5040905;28;45221;-63
2022/08/22 05:29:21;;;;;;;;;5.50;5.25;;;;;21.10;53.21;101173.69;5040451;28;45407;-64
2022/08/22 05:31:52;;;;;;;;;13.50;13.50;;;;;21.11;53.39;101171.84;5040064;28;45414;-63
2022/08/22 05:34:27;;;;;;;;;6.00;6.00;;;;;21.10;53.09;101187.06;5040687;28;45172;-64
2022/08/22 05:37:05;;;;;;;;;4.00;3.75;;;;;21.04;53.10;101195.69;5040597;28;45207;-64
2022/08/22 05:39:32;;;;;;;;;7.75;5.00;;;;;21.05;52.95;101197.38;5051611;28;45285;-64
2022/08/22 05:42:01;;;;;;;;;5.25;4.25;;;;;21.08;53.46;101206.94;5062439;28;45381;-63
2022/08/22 05:44:33;;;;;;;;;6.00;3.25;;;;;21.11;52.95;101204.00;5064243;28;45314;-64
2022/08/22 05:47:17;;;;;;;;;9.00;4.00;;;;;21.16;53.47;101196.31;5063933;28;45380;-63
2022/08/22 05:50:00;;;;;;;;;4.75;4.75;;;;;21.22;53.11;101194.91;5064007;28;46142;-63
2022/08/22 05:52:41;;;;;;;;;8.50;5.75;;;;;21.28;53.04;101192.50;5052469;28;45377;-63
2022/08/22 05:55:06;;;;;;;;;9.50;6.25;;;;;21.36;53.25;101200.66;5059143;28;45340;-64
2022/08/22 05:57:40;;;;;;;;;7.75;5.50;;;;;21.40;53.13;101193.13;5054420;28;45289;-64
2022/08/22 06:00:09;;;;;;;;;5.75;5.00;;;;;21.46;53.13;101197.91;5063822;28;45359;-64
2022/08/22 06:03:03;;;;;;;;;4.25;4.25;;;;;21.44;53.22;101202.56;5063516;28;45462;-63
2022/08/22 06:05:35;;;;;;;;;8.00;4.75;;;;;21.41;53.17;101202.88;5063753;28;45168;-64
2022/08/22 06:08:12;;;;;;;;;6.00;5.00;;;;;21.39;53.05;101203.00;5063760;28;45344;-64
2022/08/22 06:10:44;;;;;;;;;8.00;6.00;;;;;21.36;52.91;101203.31;5063822;28;45538;-64
2022/08/22 06:13:31;;;;;;;;;5.00;4.50;;;;;21.36;53.14;101218.56;5063373;28;45265;-64
2022/08/22 06:16:13;;;;;;;;;5.25;5.00;;;;;21.34;53.20;101220.56;5063141;28;45321;-64
2022/08/22 06:18:42;;;;;;;;;8.25;5.00;;;;;21.35;53.15;101207.00;5063615;28;45577;-63
2022/08/22 06:21:17;;;;;;;;;6.25;4.50;;;;;21.39;53.32;101202.16;5063301;28;45439;-64
2022/08/22 06:23:52;;;;;;;;;7.25;5.50;;;;;21.47;53.10;101199.59;5063521;28;45155;-63
2022/08/22 06:26:19;;;;;;;;;5.25;3.75;;;;;21.58;53.28;101198.53;5050096;28;45240;-63
2022/08/22 06:28:48;;;;;;;;;4.00;4.00;;;;;21.60;53.21;101202.75;5063245;28;45463;-64
2022/08/22 06:31:28;;;;;;;;;5.00;4.00;;;;;21.67;53.11;101214.56;5063016;28;45263;-64
2022/08/22 06:34:01;;;;;;;;;0.50;0.00;;;;;21.74;53.04;101220.16;5063128;28;45242;-63
2022/08/22 06:36:31;;;;;;;;;6.75;4.75;;;;;21.80;52.88;101222.22;5063591;28;45391;-63
2022/08/22 06:39:12;;;;;;;;;6.25;5.00;;;;;21.91;52.98;101216.66;5063395;28;45345;-63
2022/08/22 06:41:46;;;;;;;;;9.00;6.00;;;;;22.02;52.82;101202.16;5063361;28;46479;-63
2022/08/22 06:44:15;;;;;;;;;10.00;6.50;;;;;22.10;52.95;101199.56;5062764;28;45348;-64
2022/08/22 06:46:44;;;;;;;;;14.75;8.75;;;;;22.17;52.78;101206.00;5062655;28;45185;-64
2022/08/22 06:49:11;;;;;;;;;8.00;6.00;;;;;22.26;52.79;101206.91;5062356;28;45369;-64
2022/08/22 06:51:38;;;;;;;;;6.25;5.50;;;;;22.37;52.54;101204.00;5061602;28;47814;-64
2022/08/22 06:54:10;;;;;;;;;8.00;7.00;;;;;22.44;52.24;101198.84;5062954;28;45300;-64
2022/08/22 06:56:42;;;;;;;;;5.25;5.25;;;;;22.51;52.52;101194.53;5063145;28;45305;-64
2022/08/22 06:59:13;;;;;;;;;6.00;5.75;;;;;22.54;52.35;101195.06;5062889;28;45434;-64
2022/08/22 07:01:45;;;;;;;;;6.00;5.25;;;;;22.50;52.01;101200.91;5062573;28;45372;-64
2022/08/22 07:04:10;;;;;;;;;9.25;5.00;;;;;22.48;52.10;101202.91;5062777;28;45279;-64
2022/08/22 07:06:43;;;;;;;;;8.25;5.75;;;;;22.47;52.33;101198.53;5062996;28;45343;-64
2022/08/22 07:09:36;;;;;;;;;8.25;5.75;;;;;22.45;52.29;101211.28;5062860;28;45441;-65
2022/08/22 07:12:15;;;;;;;;;12.25;7.00;;;;;22.44;52.06;101226.56;5060940;28;45412;-63
2022/08/22 07:14:43;;;;;;;;;7.00;6.50;;;;;22.41;52.08;101224.16;5062768;28;45313;-64
2022/08/22 07:17:17;;;;;;;;;4.50;4.50;;;;;22.40;52.21;101219.78;5062488;28;45253;-64
2022/08/22 07:19:54;;;;;;;;;7.75;6.50;;;;;22.39;52.53;101226.16;5062674;28;45232;-64
2022/08/22 07:22:23;;;;;;;;;6.25;5.00;;;;;22.37;52.45;101228.16;5062415;28;46685;-64
2022/08/22 07:24:53;;;;;;;;;6.25;4.50;;;;;22.35;52.49;101227.47;5053670;27;45338;-63
2022/08/22 07:27:50;;;;;;;;;10.25;6.00;;;;;22.33;52.33;101234.00;5042393;28;45407;-64
2022/08/22 07:30:19;;;;;;;;;8.00;6.00;;;;;22.32;52.13;101237.66;5041910;28;45467;-64
2022/08/22 07:33:00;;;;;;;;;8.00;6.50;;;;;22.33;52.34;101232.16;5049172;28;45332;-64
2022/08/22 07:35:38;;;;;;;;;5.75;4.75;;;;;22.34;52.32;101232.97;5062312;28;45181;-64
2022/08/22 07:38:26;;;;;;;;;8.00;5.25;;;;;22.38;52.64;101239.75;5062421;28;45505;-64
2022/08/22 07:41:08;;;;;;;;;9.00;5.50;;;;;22.44;52.58;101233.75;5062586;28;45622;-63
2022/08/22 07:43:47;;;;;;;;;10.50;7.00;;;;;22.46;52.76;101239.81;5060854;28;47768;-63
2022/08/22 07:46:32;;;;;;;;;4.75;4.25;;;;;22.48;52.53;101233.28;5062120;28;45558;-64
2022/08/22 07:49:51;;;;;;;;;7.50;4.75;;;;;22.52;52.34;101239.19;5062356;28;45159;-64
2022/08/22 07:52:18;;;;;;;;;9.75;5.00;;;;;22.55;52.58;101233.50;5020054;28;45582;-64
2022/08/22 07:54:53;;;;;;;;;5.00;4.25;;;;;22.61;52.28;101245.47;5019679;28;45548;-64
2022/08/22 07:57:25;;;;;;;;;3.75;3.75;;;;;22.61;52.53;101240.94;5042558;28;45415;-64
2022/08/22 07:59:54;;;;;;;;;6.25;4.75;;;;;22.62;52.45;101236.41;5061708;28;45454;-63
2022/08/22 08:02:21;;;;;;;;;5.00;4.00;;;;;22.63;52.29;101236.25;5060992;28;45438;-64
2022/08/22 08:04:53;;;;;;;;;10.25;5.25;;;;;22.65;52.09;101231.53;5061578;28;45380;-64
2022/08/22 08:07:22;;;;;;;;;5.25;4.50;;;;;22.64;52.30;101237.91;5061783;28;45378;-64
2022/08/22 08:10:05;;;;;;;;;7.00;5.50;;;;;22.67;52.29;101236.75;5061638;28;45225;-64
2022/08/22 08:12:38;;;;;;;;;5.25;5.00;;;;;22.68;52.06;101241.16;5061662;28;45457;-63
2022/08/22 08:15:09;;;;;;;;;6.75;6.25;;;;;22.69;51.82;101240.16;5061413;28;45346;-64
2022/08/22 08:17:37;;;;;;;;;8.25;6.00;;;;;22.74;51.91;101249.41;5061588;28;45375;-64
2022/08/22 08:20:09;;;;;;;;;5.25;5.25;;;;;22.79;52.13;101251.63;5061615;28;45291;-64
2022/08/22 08:22:37;;;;;;;;;11.75;7.00;;;;;22.82;51.64;101256.66;5061677;28;45343;-64
2022/08/22 08:25:05;;;;;;;;;7.00;5.25;;;;;22.86;52.10;101252.72;5050566;28;45407;-64
2022/08/22 08:30:32;;;;;;;;;6.75;5.25;;;;;23.01;52.01;101252.97;5041151;28;45418;-64
2022/08/22 08:33:00;;;;;;;;;6.00;6.00;;;;;23.10;51.85;101247.47;5041526;28;45352;-64
2022/08/22 08:35:30;;;;;;;;;9.50;6.25;;;;;23.20;51.80;101249.19;5040827;28;45396;-63
2022/08/22 08:38:07;;;;;;;;;10.25;7.00;;;;;23.27;51.61;101239.50;5041418;28;45453;-64
2022/08/22 08:40:33;;;;;;;;;7.75;6.00;;;;;23.38;51.15;101234.69;5041411;28;45272;-63
2022/08/22 08:46:01;;;;;;;;;8.75;5.00;;;;;23.69;51.25;101231.44;5040834;28;45319;-64
2022/08/22 08:48:55;;;;;;;;;7.50;6.00;;;;;23.83;50.76;101230.78;5043139;28;45331;-63
2022/08/22 08:51:43;;;;;;;;;5.50;5.00;;;;;23.94;50.91;101221.59;5051884;28;45178;-64
2022/08/22 08:54:14;;;;;;;;;3.75;3.75;;;;;24.02;50.36;101218.91;5061398;28;45322;-64
2022/08/22 08:57:06;;;;;;;;;6.25;5.25;;;;;24.05;50.55;101223.09;5060946;28;46243;-64
2022/08/22 08:59:49;;;;;;;;;4.25;2.25;;;;;24.05;50.16;101220.41;5032564;28;45439;-64
2022/08/22 09:02:51;;;;;;;;;7.00;5.75;;;;;24.03;50.18;101208.97;5049979;28;45427;-63
2022/08/22 09:05:45;;;;;;;;;7.25;5.00;;;;;24.00;50.11;101211.97;5059135;28;45618;-63
2022/08/22 09:08:36;;;;;;;;;7.75;4.25;;;;;24.05;49.51;101204.25;5040461;28;45393;-64
2022/08/22 09:11:19;;;;;;;;;6.00;6.00;;;;;24.09;49.78;101200.19;5060855;28;45305;-64
2022/08/22 09:13:58;;;;;;;;;6.50;3.00;;;;;24.14;49.96;101203.25;5060981;28;45372;-64
2022/08/22 09:16:36;;;;;;;;;6.75;5.50;;;;;24.18;49.40;101201.91;5060718;28;45379;-63
2022/08/22 09:19:33;;;;;;;;;14.75;10.50;;;;;24.18;49.51;101204.59;5060602;28;45301;-64
2022/08/22 09:22:23;;;;;;;;;8.50;7.00;;;;;24.20;49.34;101206.09;5060537;28;45297;-64
2022/08/22 09:25:10;;;;;;;;;7.25;5.75;;;;;24.25;49.26;101200.19;5052243;28;45314;-64
2022/08/22 09:28:01;;;;;;;;;4.00;4.00;;;;;24.33;49.27;101202.09;5040613;28;45212;-64
2022/08/22 09:31:12;;;;;;;;;6.50;4.50;;;;;24.39;49.06;101193.34;5040194;28;46524;-64
2022/08/22 09:33:50;;;;;;;;;7.75;4.00;;;;;24.52;48.62;101199.06;5028837;28;45378;-64
2022/08/22 09:37:03;;;;;;;;;8.00;3.75;;;;;24.62;48.80;101198.84;5060555;28;45430;-63
2022/08/22 09:39:51;;;;;;;;;5.25;2.75;;;;;24.62;48.61;101199.69;5048062;28;45535;-64
2022/08/22 09:42:52;;;;;;;;;5.25;3.50;;;;;24.69;48.59;101189.09;5060247;28;45360;-64
2022/08/22 09:45:39;;;;;;;;;4.25;3.75;;;;;24.77;48.10;101189.91;5030930;28;45437;-63
2022/08/22 09:48:30;;;;;;;;;4.50;4.50;;;;;24.86;48.21;101179.09;5060453;28;45317;-63
2022/08/22 09:51:40;;;;;;;;;4.00;3.25;;;;;24.91;47.90;101180.25;5050010;28;45186;-64
2022/08/22 09:54:30;;;;;;;;;5.00;2.75;;;;;24.98;47.38;101177.72;5017886;28;46124;-63
2022/08/22 09:57:13;;;;;;;;;6.25;3.50;;;;;24.98;47.17;101172.34;5001123;28;45361;-63
2022/08/22 09:59:57;;;;;;;;;5.75;4.50;;;;;25.04;47.35;101177.91;5049408;28;45290;-64
2022/08/22 10:02:27;;;;;;;;;5.50;4.75;;;;;25.12;47.15;101181.56;5060127;28;45304;-63
2022/08/22 10:05:15;;;;;;;;;3.25;2.75;;;;;25.15;47.30;101181.22;5059661;28;46197;-63
2022/08/22 10:07:55;;;;;;;;;5.75;4.00;;;;;25.21;46.58;101183.22;5059968;28;45490;-63
2022/08/22 10:10:59;;;;;;;;;4.00;3.00;;;;;25.28;47.00;101190.44;5060391;28;45293;-64
2022/08/22 10:13:31;;;;;;;;;5.00;3.00;;;;;25.40;46.59;101188.16;5052180;28;45556;-63
2022/08/22 10:16:11;;;;;;;;;3.25;2.75;;;;;25.46;46.75;101184.78;5059196;28;45334;-63
2022/08/22 10:18:42;;;;;;;;;2.75;2.75;;;;;25.48;45.94;101187.28;5059655;28;45554;-63
2022/08/22 10:21:18;;;;;;;;;2.75;2.00;;;;;25.51;46.14;101176.13;5059781;28;45303;-63
2022/08/22 10:23:56;;;;;;;;;8.00;3.00;;;;;25.60;46.24;101183.19;5060201;28;45245;-63
2022/08/22 10:26:47;;;;;;;;;18.50;13.00;;;;;25.68;45.91;101180.44;5050632;28;45387;-63
2022/08/22 10:29:46;;;;;;;;;50.00;33.50;;;;;25.81;45.96;101166.34;5063097;28;45509;-64
2022/08/22 10:32:38;;;;;;;;;5.00;3.50;;;;;25.96;45.52;101174.50;5063170;28;45434;-63
2022/08/22 10:35:25;;;;;;;;;5.50;3.00;;;;;26.04;45.65;101174.44;5063323;28;45256;-63
2022/08/22 10:38:18;;;;;;;;;6.25;5.50;;;;;26.12;45.46;101169.81;5063203;28;46180;-63
2022/08/22 10:41:07;;;;;;;;;9.75;5.25;;;;;26.25;45.32;101173.78;5063130;28;45314;-63
2022/08/22 10:43:49;;;;;;;;;7.50;5.75;;;;;26.24;45.11;101169.41;5062882;28;45350;-63
2022/08/22 10:46:21;;;;;;;;;6.75;4.00;;;;;26.28;45.36;101170.69;5062718;28;45439;-63
2022/08/22 10:48:57;;;;;;;;;5.50;3.00;;;;;26.35;44.76;101177.88;5062563;28;45407;-63
2022/08/22 10:51:42;;;;;;;;;10.75;9.25;;;;;26.38;44.73;101172.13;5062282;28;45351;-63
2022/08/22 10:54:28;;;;;;;;;20.75;19.00;;;;;26.37;44.61;101170.44;5062489;28;45229;-63
2022/08/22 10:57:19;;;;;;;;;25.00;21.75;;;;;26.36;44.16;101167.91;5062529;28;45260;-63
2022/08/22 10:59:59;;;;;;;;;4.50;2.50;;;;;26.34;44.37;101165.41;5062698;28;45433;-64
2022/08/22 11:02:49;;;;;;;;;5.50;2.25;;;;;26.33;44.25;101168.28;5062707;28;45245;-65
2022/08/22 11:05:39;;;;;;;;;6.00;4.25;;;;;26.39;44.32;101156.78;5063092;28;45421;-62
2022/08/22 11:08:32;;;;;;;;;4.50;3.00;;;;;26.50;44.16;101160.91;5062492;28;45431;-62
2022/08/22 11:11:28;;;;;;;;;4.00;3.25;;;;;26.61;44.09;101177.47;5062398;28;45986;-63
2022/08/22 11:14:16;;;;;;;;;6.00;3.50;;;;;26.59;43.95;101176.84;5062603;28;45435;-63
2022/08/22 11:16:55;;;;;;;;;3.75;3.25;;;;;26.52;43.90;101170.47;5061981;28;45297;-63
2022/08/22 11:19:21;;;;;;;;;14.25;13.25;;;;;26.53;43.96;101166.75;5062462;28;45264;-63
2022/08/22 11:21:59;;;;;;;;;4.00;4.00;;;;;26.60;43.95;101164.16;5062331;28;45365;-63
2022/08/22 11:24:30;;;;;;;;;3.50;3.00;;;;;26.60;43.84;101161.44;5052244;28;45319;-63
2022/08/22 11:27:13;;;;;;;;;3.25;2.00;;;;;26.59;43.77;101154.38;5055648;28;45363;-63
2022/08/22 11:29:43;;;;;;;;;4.00;3.50;;;;;26.52;43.67;101153.44;5062085;28;45342;-62
2022/08/22 11:32:29;;;;;;;;;5.75;5.00;;;;;26.60;43.76;101158.75;5061895;28;46259;-63
2022/08/22 11:35:34;;;;;;;;;5.75;4.50;;;;;26.73;43.71;101160.81;5062312;28;45220;-62
2022/08/22 11:38:11;;;;;;;;;6.00;3.25;;;;;26.81;43.69;101148.03;5030039;28;45318;-62
2022/08/22 11:40:45;;;;;;;;;8.50;5.50;;;;;26.81;43.60;101156.16;5060535;28;45225;-62
2022/08/22 11:43:32;;;;;;;;;6.00;5.50;;;;;26.76;43.62;101144.22;5062065;28;45526;-63
2022/08/22 11:46:04;;;;;;;;;6.00;4.00;;;;;26.82;43.55;101151.59;5061863;28;45349;-63
2022/08/22 11:48:52;;;;;;;;;7.25;4.75;;;;;26.92;43.53;101147.56;5062059;28;45295;-63
2022/08/22 11:51:29;;;;;;;;;3.75;3.00;;;;;27.13;43.74;101152.22;5062036;28;45334;-63
2022/08/22 11:54:28;;;;;;;;;4.00;2.75;;;;;27.29;43.31;101139.53;5056974;28;45426;-63
2022/08/22 11:57:08;;;;;;;;;2.00;2.00;;;;;27.45;43.36;101142.81;5060537;28;45252;-63
2022/08/22 11:59:58;;;;;;;;;2.00;2.00;;;;;27.53;42.93;101139.16;5061905;28;45396;-63
2022/08/22 12:02:38;;;;;;;;;1.75;1.00;;;;;27.51;43.09;101142.06;5062161;28;45162;-64
2022/08/22 12:05:18;;;;;;;;;1.00;0.50;;;;;27.43;42.83;101144.91;5061756;28;46049;-63
2022/08/22 12:08:05;;;;;;;;;2.00;1.00;;;;;27.37;42.77;101150.22;5061809;28;45178;-64
2022/08/22 12:10:35;;;;;;;;;2.75;2.75;;;;;27.30;42.73;101143.91;5061916;28;45237;-63
2022/08/22 12:13:16;;;;;;;;;2.50;2.50;;;;;27.20;42.76;101153.16;5061779;28;45327;-63
2022/08/22 12:16:09;;;;;;;;;1.50;1.50;;;;;27.13;43.19;101141.41;5061209;28;45481;-64
2022/08/22 12:18:44;;;;;;;;;2.00;2.00;;;;;27.07;43.10;101136.75;5061628;28;45299;-63
2022/08/22 12:21:18;;;;;;;;;1.25;1.25;;;;;27.04;43.69;101133.59;5061881;28;45225;-63
2022/08/22 12:24:16;;;;;;;;;3.00;2.00;;;;;27.02;43.39;101132.91;5061600;28;45220;-64
2022/08/22 12:27:20;;;;;;;;;12.00;8.75;;;;;26.96;43.12;101132.66;5052109;28;45256;-63
2022/08/22 12:30:05;;;;;;;;;6.25;5.00;;;;;26.91;43.58;101135.06;5061339;28;45161;-62
2022/08/22 12:32:55;;;;;;;;;1.75;1.75;;;;;26.89;43.70;101139.00;5061789;28;45377;-63
2022/08/22 12:36:05;;;;;;;;;2.00;2.00;;;;;26.90;43.54;101130.69;5061727;28;45436;-64